CUB808 SPZO-SEQM
Flight info
| Callsign | CUB808 |
|---|---|
| Flight time | N/A |
| Altitude | 36000 |
| Route | GAXUN UT321 JCL UM674 BOBUG/N0471F350 UM674 ROBIG/N0471F360 UM674 KETOM RNAV3 |
| Aircraft | IL62/H-SD/C |
Departure
| Time | 2026-05-01 14:43 |
|---|---|
| Airport | Alejandro Velasco Astete International Airport (SPZO) |
Arrival
| Time | N/A |
|---|---|
| Airport | Mariscal Sucre International Airport (SEQM) |
| Time | Latitude | Longitude | Altitude | Speed | Heading |
|---|---|---|---|---|---|
| 2026-05-01 13:57 | -13.53771 | -71.94490 | 10821 ft | 0 kts | 257° |
| 2026-05-01 14:26 | -13.53771 | -71.94487 | 10821 ft | 2 kts | 257° |
| 2026-05-01 14:26 | -13.53767 | -71.94472 | 10821 ft | 3 kts | 257° |
| 2026-05-01 14:27 | -13.53763 | -71.94452 | 10821 ft | 3 kts | 257° |
| 2026-05-01 14:27 | -13.53760 | -71.94438 | 10821 ft | 0 kts | 257° |
| 2026-05-01 14:32 | -13.53760 | -71.94445 | 10821 ft | 4 kts | 275° |
| 2026-05-01 14:32 | -13.53719 | -71.94463 | 10821 ft | 6 kts | 358° |
| 2026-05-01 14:32 | -13.53678 | -71.94470 | 10821 ft | 7 kts | 329° |
| 2026-05-01 14:33 | -13.53655 | -71.94513 | 10826 ft | 8 kts | 284° |
| 2026-05-01 14:33 | -13.53646 | -71.94576 | 10830 ft | 10 kts | 276° |
| 2026-05-01 14:33 | -13.53638 | -71.94663 | 10834 ft | 15 kts | 276° |
| 2026-05-01 14:33 | -13.53626 | -71.94785 | 10838 ft | 20 kts | 276° |
| 2026-05-01 14:34 | -13.53611 | -71.94924 | 10853 ft | 18 kts | 276° |
| 2026-05-01 14:34 | -13.53598 | -71.95043 | 10863 ft | 16 kts | 276° |
| 2026-05-01 14:34 | -13.53586 | -71.95164 | 10868 ft | 17 kts | 276° |
| 2026-05-01 14:34 | -13.53575 | -71.95281 | 10871 ft | 14 kts | 276° |
| 2026-05-01 14:35 | -13.53564 | -71.95359 | 10875 ft | 8 kts | 286° |
| 2026-05-01 14:35 | -13.53555 | -71.95382 | 10878 ft | 0 kts | 299° |
| 2026-05-01 14:37 | -13.53552 | -71.95388 | 10878 ft | 3 kts | 302° |
| 2026-05-01 14:37 | -13.53515 | -71.95422 | 10882 ft | 8 kts | 337° |
| 2026-05-01 14:37 | -13.53500 | -71.95425 | 10882 ft | 0 kts | 354° |
| 2026-05-01 14:39 | -13.53482 | -71.95426 | 10882 ft | 7 kts | 357° |
| 2026-05-01 14:39 | -13.53421 | -71.95409 | 10881 ft | 7 kts | 59° |
| 2026-05-01 14:40 | -13.53416 | -71.95358 | 10877 ft | 0 kts | 95° |
| 2026-05-01 14:40 | -13.53416 | -71.95357 | 10877 ft | 0 kts | 95° |
| 2026-05-01 14:41 | -13.53423 | -71.95275 | 10871 ft | 30 kts | 96° |
| 2026-05-01 14:41 | -13.53458 | -71.94927 | 10856 ft | 69 kts | 96° |
| 2026-05-01 14:42 | -13.53524 | -71.94297 | 10821 ft | 108 kts | 96° |
| 2026-05-01 14:42 | -13.53615 | -71.93395 | 10773 ft | 146 kts | 96° |
| 2026-05-01 14:42 | -13.53741 | -71.92234 | 10735 ft | 178 kts | 96° |
| 2026-05-01 14:42 | -13.53899 | -71.90933 | 10939 ft | 186 kts | 97° |
| 2026-05-01 14:43 | -13.54198 | -71.89610 | 11192 ft | 195 kts | 107° |
| 2026-05-01 14:43 | -13.54614 | -71.88249 | 11466 ft | 204 kts | 108° |
| 2026-05-01 14:43 | -13.55058 | -71.86846 | 11807 ft | 209 kts | 109° |
| 2026-05-01 14:43 | -13.55615 | -71.85434 | 12108 ft | 217 kts | 112° |
| 2026-05-01 14:44 | -13.56232 | -71.83984 | 12391 ft | 226 kts | 114° |
| 2026-05-01 14:44 | -13.57489 | -71.81019 | 13241 ft | 227 kts | 113° |
| 2026-05-01 14:44 | -13.58072 | -71.79488 | 13562 ft | 233 kts | 110° |
| 2026-05-01 14:45 | -13.58580 | -71.77885 | 13863 ft | 241 kts | 106° |
| 2026-05-01 14:45 | -13.58800 | -71.74385 | 14618 ft | 258 kts | 68° |
| 2026-05-01 14:45 | -13.57756 | -71.72810 | 14853 ft | 280 kts | 42° |
| 2026-05-01 14:46 | -13.56062 | -71.71652 | 15090 ft | 306 kts | 28° |
| 2026-05-01 14:46 | -13.52869 | -71.69792 | 16095 ft | 329 kts | 34° |
| 2026-05-01 14:46 | -13.51203 | -71.68119 | 16801 ft | 342 kts | 50° |
| 2026-05-01 14:47 | -13.49778 | -71.66125 | 17499 ft | 350 kts | 45° |
| 2026-05-01 14:47 | -13.47902 | -71.64535 | 18208 ft | 352 kts | 28° |
| 2026-05-01 14:47 | -13.45638 | -71.63561 | 18852 ft | 355 kts | 11° |
| 2026-05-01 14:48 | -13.40717 | -71.63693 | 20140 ft | 362 kts | 345° |
| 2026-05-01 14:48 | -13.38230 | -71.64247 | 20808 ft | 369 kts | 344° |
| 2026-05-01 14:48 | -13.33532 | -71.66246 | 22226 ft | 368 kts | 314° |
| 2026-05-01 14:49 | -13.31449 | -71.70884 | 23655 ft | 366 kts | 280° |
| 2026-05-01 14:49 | -13.30648 | -71.76109 | 24958 ft | 375 kts | 277° |
| 2026-05-01 14:50 | -13.30192 | -71.80562 | 26066 ft | 379 kts | 274° |
| 2026-05-01 14:50 | -13.29902 | -71.86922 | 27609 ft | 383 kts | 270° |
| 2026-05-01 14:51 | -13.29909 | -71.89658 | 28252 ft | 384 kts | 269° |
| 2026-05-01 14:51 | -13.30165 | -71.95142 | 29474 ft | 385 kts | 266° |
| 2026-05-01 14:52 | -13.30757 | -72.00623 | 30532 ft | 388 kts | 264° |
| 2026-05-01 14:52 | -13.31180 | -72.03358 | 31046 ft | 389 kts | 262° |
| 2026-05-01 14:52 | -13.32285 | -72.08805 | 32038 ft | 390 kts | 259° |
| 2026-05-01 14:53 | -13.32966 | -72.11504 | 32508 ft | 391 kts | 258° |
| 2026-05-01 14:53 | -13.33736 | -72.14189 | 32959 ft | 392 kts | 256° |
| 2026-05-01 14:53 | -13.34592 | -72.16848 | 33389 ft | 393 kts | 254° |
| 2026-05-01 14:53 | -13.35539 | -72.19486 | 33799 ft | 394 kts | 252° |
| 2026-05-01 14:54 | -13.36834 | -72.21987 | 34208 ft | 398 kts | 242° |
| 2026-05-01 14:54 | -13.38187 | -72.24444 | 34624 ft | 392 kts | 252° |
| 2026-05-01 14:54 | -13.38875 | -72.27095 | 35029 ft | 380 kts | 269° |
| 2026-05-01 14:54 | -13.38785 | -72.29756 | 35399 ft | 369 kts | 285° |
| 2026-05-01 14:55 | -13.37943 | -72.32202 | 35746 ft | 360 kts | 302° |
| 2026-05-01 14:55 | -13.36583 | -72.34344 | 36041 ft | 358 kts | 306° |
| 2026-05-01 14:55 | -13.35248 | -72.36512 | 36284 ft | 360 kts | 304° |
| 2026-05-01 14:55 | -13.33990 | -72.38744 | 36533 ft | 362 kts | 302° |
| 2026-05-01 14:56 | -13.32928 | -72.40700 | 36740 ft | 363 kts | 302° |
| 2026-05-01 14:56 | -13.30356 | -72.45470 | 36734 ft | 381 kts | 302° |
| 2026-05-01 14:57 | -13.27648 | -72.50249 | 36712 ft | 398 kts | 304° |
| 2026-05-01 14:57 | -13.24554 | -72.55154 | 36705 ft | 415 kts | 307° |
| 2026-05-01 14:57 | -13.22874 | -72.57591 | 36703 ft | 422 kts | 308° |
| 2026-05-01 14:58 | -13.19266 | -72.62417 | 36702 ft | 436 kts | 311° |
| 2026-05-01 14:58 | -13.15344 | -72.67294 | 36704 ft | 449 kts | 312° |
| 2026-05-01 14:59 | -13.11291 | -72.72138 | 36881 ft | 441 kts | 313° |
| 2026-05-01 14:59 | -13.07138 | -72.76697 | 36879 ft | 434 kts | 316° |
| 2026-05-01 15:00 | -13.00527 | -72.82916 | 36789 ft | 427 kts | 321° |
| 2026-05-01 15:01 | -12.95988 | -72.86802 | 36744 ft | 423 kts | 320° |
| 2026-05-01 15:01 | -12.91716 | -72.90923 | 36697 ft | 421 kts | 315° |
| 2026-05-01 15:02 | -12.87809 | -72.95361 | 36604 ft | 418 kts | 316° |
| 2026-05-01 15:02 | -12.83787 | -72.99655 | 36456 ft | 418 kts | 315° |
| 2026-05-01 15:03 | -12.79941 | -73.04100 | 36422 ft | 415 kts | 312° |
| 2026-05-01 15:03 | -12.76380 | -73.08730 | 36418 ft | 412 kts | 309° |
| 2026-05-01 15:04 | -12.73118 | -73.13535 | 36405 ft | 410 kts | 306° |
| 2026-05-01 15:04 | -12.70251 | -73.18568 | 36387 ft | 409 kts | 299° |
| 2026-05-01 15:05 | -12.68159 | -73.23987 | 36366 ft | 410 kts | 290° |
| 2026-05-01 15:05 | -12.65801 | -73.29207 | 36345 ft | 402 kts | 300° |
| 2026-05-01 15:06 | -12.63199 | -73.34203 | 36331 ft | 398 kts | 302° |
| 2026-05-01 15:06 | -12.60395 | -73.39058 | 36317 ft | 394 kts | 305° |
| 2026-05-01 15:07 | -12.57408 | -73.43732 | 36305 ft | 391 kts | 306° |
| 2026-05-01 15:07 | -12.54424 | -73.48472 | 36301 ft | 405 kts | 304° |
| 2026-05-01 15:08 | -12.51520 | -73.53500 | 36373 ft | 421 kts | 302° |